sensor_id;sensor_type;location;lat;lon;timestamp;temperature;humidity
3281;DHT22;1652;51.31805600;6.20194400;2024-03-08T00:00:11;3.90;1.00
3281;DHT22;1652;51.31805600;6.20194400;2024-03-08T00:02:49;3.90;1.00
3281;DHT22;1652;51.31805600;6.20194400;2024-03-08T00:05:27;3.80;1.00
3281;DHT22;1652;51.31805600;6.20194400;2024-03-08T00:08:33;3.80;1.00
3281;DHT22;1652;51.31805600;6.20194400;2024-03-08T00:11:16;3.90;1.00
3281;DHT22;1652;51.31805600;6.20194400;2024-03-08T00:13:43;3.90;1.00
3281;DHT22;1652;51.31805600;6.20194400;2024-03-08T00:16:11;3.70;1.00
3281;DHT22;1652;51.31805600;6.20194400;2024-03-08T00:18:39;3.70;1.00
3281;DHT22;1652;51.31805600;6.20194400;2024-03-08T00:21:06;3.80;1.00
3281;DHT22;1652;51.31805600;6.20194400;2024-03-08T00:23:33;3.60;1.00
3281;DHT22;1652;51.31805600;6.20194400;2024-03-08T00:26:00;3.50;1.00
3281;DHT22;1652;51.31805600;6.20194400;2024-03-08T00:28:27;3.40;1.00
3281;DHT22;1652;51.31805600;6.20194400;2024-03-08T00:30:54;3.30;1.00
3281;DHT22;1652;51.31805600;6.20194400;2024-03-08T00:33:21;3.40;1.00
3281;DHT22;1652;51.31805600;6.20194400;2024-03-08T00:35:48;3.50;1.00
3281;DHT22;1652;51.31805600;6.20194400;2024-03-08T00:38:15;3.50;1.00
3281;DHT22;1652;51.31805600;6.20194400;2024-03-08T00:40:42;3.50;1.00
3281;DHT22;1652;51.31805600;6.20194400;2024-03-08T00:43:08;3.40;1.00
3281;DHT22;1652;51.31805600;6.20194400;2024-03-08T00:45:35;3.40;1.00
3281;DHT22;1652;51.31805600;6.20194400;2024-03-08T00:48:04;3.40;1.00
3281;DHT22;1652;51.31805600;6.20194400;2024-03-08T00:50:32;3.40;1.00
3281;DHT22;1652;51.31805600;6.20194400;2024-03-08T00:53:00;3.30;1.00
3281;DHT22;1652;51.31805600;6.20194400;2024-03-08T00:55:27;3.30;1.00
3281;DHT22;1652;51.31805600;6.20194400;2024-03-08T00:57:56;3.20;1.00
3281;DHT22;1652;51.31805600;6.20194400;2024-03-08T01:00:23;3.10;1.00
3281;DHT22;1652;51.31805600;6.20194400;2024-03-08T01:02:52;3.20;1.00
3281;DHT22;1652;51.31805600;6.20194400;2024-03-08T01:05:19;3.10;1.00
3281;DHT22;1652;51.31805600;6.20194400;2024-03-08T01:07:46;3.10;1.00
3281;DHT22;1652;51.31805600;6.20194400;2024-03-08T01:10:13;3.00;1.00
3281;DHT22;1652;51.31805600;6.20194400;2024-03-08T01:12:40;2.90;1.00
3281;DHT22;1652;51.31805600;6.20194400;2024-03-08T01:15:07;3.00;1.00
3281;DHT22;1652;51.31805600;6.20194400;2024-03-08T01:17:34;3.00;1.00
3281;DHT22;1652;51.31805600;6.20194400;2024-03-08T01:20:02;3.10;1.00
3281;DHT22;1652;51.31805600;6.20194400;2024-03-08T01:22:29;3.20;1.00
3281;DHT22;1652;51.31805600;6.20194400;2024-03-08T01:24:56;3.10;1.00
3281;DHT22;1652;51.31805600;6.20194400;2024-03-08T01:27:24;3.10;1.00
3281;DHT22;1652;51.31805600;6.20194400;2024-03-08T01:29:51;3.10;1.00
3281;DHT22;1652;51.31805600;6.20194400;2024-03-08T01:32:18;3.10;1.00
3281;DHT22;1652;51.31805600;6.20194400;2024-03-08T01:34:46;3.10;1.00
3281;DHT22;1652;51.31805600;6.20194400;2024-03-08T01:37:13;3.10;1.00
3281;DHT22;1652;51.31805600;6.20194400;2024-03-08T01:39:41;3.00;1.00
3281;DHT22;1652;51.31805600;6.20194400;2024-03-08T01:42:08;3.00;1.00
3281;DHT22;1652;51.31805600;6.20194400;2024-03-08T01:44:38;2.90;1.00
3281;DHT22;1652;51.31805600;6.20194400;2024-03-08T01:47:06;2.90;1.00
3281;DHT22;1652;51.31805600;6.20194400;2024-03-08T01:49:33;2.90;1.00
3281;DHT22;1652;51.31805600;6.20194400;2024-03-08T01:52:00;3.00;1.00
3281;DHT22;1652;51.31805600;6.20194400;2024-03-08T01:54:27;3.00;1.00
3281;DHT22;1652;51.31805600;6.20194400;2024-03-08T01:56:54;3.00;1.00
3281;DHT22;1652;51.31805600;6.20194400;2024-03-08T01:59:21;2.90;1.00
3281;DHT22;1652;51.31805600;6.20194400;2024-03-08T02:01:48;2.80;1.00
3281;DHT22;1652;51.31805600;6.20194400;2024-03-08T02:04:15;2.90;1.00
3281;DHT22;1652;51.31805600;6.20194400;2024-03-08T02:06:43;2.90;1.00
3281;DHT22;1652;51.31805600;6.20194400;2024-03-08T02:09:11;2.90;1.00
3281;DHT22;1652;51.31805600;6.20194400;2024-03-08T02:11:41;2.80;1.00
3281;DHT22;1652;51.31805600;6.20194400;2024-03-08T02:14:08;2.70;1.00
3281;DHT22;1652;51.31805600;6.20194400;2024-03-08T02:16:35;2.80;1.00
3281;DHT22;1652;51.31805600;6.20194400;2024-03-08T02:19:02;2.90;1.00
3281;DHT22;1652;51.31805600;6.20194400;2024-03-08T02:21:29;2.90;1.00
3281;DHT22;1652;51.31805600;6.20194400;2024-03-08T02:23:58;2.90;1.00
3281;DHT22;1652;51.31805600;6.20194400;2024-03-08T02:26:25;2.80;1.00
3281;DHT22;1652;51.31805600;6.20194400;2024-03-08T02:28:52;2.80;1.00
3281;DHT22;1652;51.31805600;6.20194400;2024-03-08T02:31:19;2.90;1.00
3281;DHT22;1652;51.31805600;6.20194400;2024-03-08T02:33:48;2.90;1.00
3281;DHT22;1652;51.31805600;6.20194400;2024-03-08T02:36:15;2.80;1.00
3281;DHT22;1652;51.31805600;6.20194400;2024-03-08T02:38:43;2.60;1.00
3281;DHT22;1652;51.31805600;6.20194400;2024-03-08T02:41:10;2.70;1.00
3281;DHT22;1652;51.31805600;6.20194400;2024-03-08T02:43:37;2.70;1.00
3281;DHT22;1652;51.31805600;6.20194400;2024-03-08T02:46:04;2.60;1.00
3281;DHT22;1652;51.31805600;6.20194400;2024-03-08T02:48:35;2.70;1.00
3281;DHT22;1652;51.31805600;6.20194400;2024-03-08T02:51:02;2.70;1.00
3281;DHT22;1652;51.31805600;6.20194400;2024-03-08T02:53:29;2.50;1.00
3281;DHT22;1652;51.31805600;6.20194400;2024-03-08T02:55:56;2.40;1.00
3281;DHT22;1652;51.31805600;6.20194400;2024-03-08T02:58:23;2.40;1.00
3281;DHT22;1652;51.31805600;6.20194400;2024-03-08T03:00:50;2.60;1.00
3281;DHT22;1652;51.31805600;6.20194400;2024-03-08T03:03:17;2.50;1.00
3281;DHT22;1652;51.31805600;6.20194400;2024-03-08T03:05:43;2.50;1.00
3281;DHT22;1652;51.31805600;6.20194400;2024-03-08T03:08:15;2.50;1.00
3281;DHT22;1652;51.31805600;6.20194400;2024-03-08T03:10:44;2.50;1.00
3281;DHT22;1652;51.31805600;6.20194400;2024-03-08T03:13:11;2.50;1.00
3281;DHT22;1652;51.31805600;6.20194400;2024-03-08T03:15:39;2.50;1.00
3281;DHT22;1652;51.31805600;6.20194400;2024-03-08T03:18:08;2.40;1.00
3281;DHT22;1652;51.31805600;6.20194400;2024-03-08T03:20:36;2.30;1.00
3281;DHT22;1652;51.31805600;6.20194400;2024-03-08T03:23:10;2.30;1.00
3281;DHT22;1652;51.31805600;6.20194400;2024-03-08T03:25:41;2.20;1.00
3281;DHT22;1652;51.31805600;6.20194400;2024-03-08T03:28:09;2.10;1.00
3281;DHT22;1652;51.31805600;6.20194400;2024-03-08T03:30:38;2.20;1.00
3281;DHT22;1652;51.31805600;6.20194400;2024-03-08T03:33:06;2.20;1.00
3281;DHT22;1652;51.31805600;6.20194400;2024-03-08T03:35:37;2.00;1.00
3281;DHT22;1652;51.31805600;6.20194400;2024-03-08T03:38:04;2.00;10.40
3281;DHT22;1652;51.31805600;6.20194400;2024-03-08T03:40:38;2.00;93.70
3281;DHT22;1652;51.31805600;6.20194400;2024-03-08T03:43:05;2.10;54.60
3281;DHT22;1652;51.31805600;6.20194400;2024-03-08T03:45:32;2.20;1.00
3281;DHT22;1652;51.31805600;6.20194400;2024-03-08T03:48:05;2.20;1.00
3281;DHT22;1652;51.31805600;6.20194400;2024-03-08T03:50:35;2.10;1.00
3281;DHT22;1652;51.31805600;6.20194400;2024-03-08T03:53:04;2.10;1.00
3281;DHT22;1652;51.31805600;6.20194400;2024-03-08T03:55:31;2.00;1.00
3281;DHT22;1652;51.31805600;6.20194400;2024-03-08T03:58:01;2.00;61.90
3281;DHT22;1652;51.31805600;6.20194400;2024-03-08T04:00:28;1.90;46.50
3281;DHT22;1652;51.31805600;6.20194400;2024-03-08T04:02:55;2.00;63.30
3281;DHT22;1652;51.31805600;6.20194400;2024-03-08T04:05:26;2.00;43.40
3281;DHT22;1652;51.31805600;6.20194400;2024-03-08T04:07:53;2.00;1.00
3281;DHT22;1652;51.31805600;6.20194400;2024-03-08T04:10:20;1.90;85.80
3281;DHT22;1652;51.31805600;6.20194400;2024-03-08T04:12:47;1.90;95.00
3281;DHT22;1652;51.31805600;6.20194400;2024-03-08T04:15:14;1.90;54.80
3281;DHT22;1652;51.31805600;6.20194400;2024-03-08T04:17:42;1.80;90.20
3281;DHT22;1652;51.31805600;6.20194400;2024-03-08T04:20:09;1.70;99.90
3281;DHT22;1652;51.31805600;6.20194400;2024-03-08T04:22:38;1.70;99.90
3281;DHT22;1652;51.31805600;6.20194400;2024-03-08T04:25:06;1.70;99.90
3281;DHT22;1652;51.31805600;6.20194400;2024-03-08T04:27:33;1.70;99.90
3281;DHT22;1652;51.31805600;6.20194400;2024-03-08T04:30:02;1.70;99.90
3281;DHT22;1652;51.31805600;6.20194400;2024-03-08T04:32:29;1.70;99.90
3281;DHT22;1652;51.31805600;6.20194400;2024-03-08T04:35:00;1.80;99.90
3281;DHT22;1652;51.31805600;6.20194400;2024-03-08T04:37:31;1.80;99.90
3281;DHT22;1652;51.31805600;6.20194400;2024-03-08T04:39:58;1.70;99.90
3281;DHT22;1652;51.31805600;6.20194400;2024-03-08T04:42:29;1.70;99.90
3281;DHT22;1652;51.31805600;6.20194400;2024-03-08T04:44:57;1.50;99.90
3281;DHT22;1652;51.31805600;6.20194400;2024-03-08T04:47:24;1.50;99.90
3281;DHT22;1652;51.31805600;6.20194400;2024-03-08T04:49:52;1.50;99.90
3281;DHT22;1652;51.31805600;6.20194400;2024-03-08T04:52:19;1.50;99.90
3281;DHT22;1652;51.31805600;6.20194400;2024-03-08T04:54:45;1.50;99.90
3281;DHT22;1652;51.31805600;6.20194400;2024-03-08T04:57:12;1.50;99.90
3281;DHT22;1652;51.31805600;6.20194400;2024-03-08T04:59:39;1.50;99.90
3281;DHT22;1652;51.31805600;6.20194400;2024-03-08T05:02:07;1.50;99.90
3281;DHT22;1652;51.31805600;6.20194400;2024-03-08T05:04:34;1.40;99.90
3281;DHT22;1652;51.31805600;6.20194400;2024-03-08T05:07:02;1.50;99.90
3281;DHT22;1652;51.31805600;6.20194400;2024-03-08T05:09:29;1.50;99.90
3281;DHT22;1652;51.31805600;6.20194400;2024-03-08T05:11:59;1.50;99.90
3281;DHT22;1652;51.31805600;6.20194400;2024-03-08T05:14:26;1.40;99.90
3281;DHT22;1652;51.31805600;6.20194400;2024-03-08T05:16:53;1.40;99.90
3281;DHT22;1652;51.31805600;6.20194400;2024-03-08T05:19:20;1.30;99.90
3281;DHT22;1652;51.31805600;6.20194400;2024-03-08T05:21:49;1.30;99.90
3281;DHT22;1652;51.31805600;6.20194400;2024-03-08T05:24:17;1.40;99.90
3281;DHT22;1652;51.31805600;6.20194400;2024-03-08T05:26:46;1.50;99.90
3281;DHT22;1652;51.31805600;6.20194400;2024-03-08T05:29:13;1.50;99.90
3281;DHT22;1652;51.31805600;6.20194400;2024-03-08T05:31:49;1.50;99.90
3281;DHT22;1652;51.31805600;6.20194400;2024-03-08T05:34:17;1.50;99.90
3281;DHT22;1652;51.31805600;6.20194400;2024-03-08T05:36:44;1.40;99.90
3281;DHT22;1652;51.31805600;6.20194400;2024-03-08T05:39:15;1.40;99.90
3281;DHT22;1652;51.31805600;6.20194400;2024-03-08T05:41:43;1.40;99.90
3281;DHT22;1652;51.31805600;6.20194400;2024-03-08T05:44:10;1.40;99.90
3281;DHT22;1652;51.31805600;6.20194400;2024-03-08T05:46:38;1.40;99.90
3281;DHT22;1652;51.31805600;6.20194400;2024-03-08T05:49:06;1.40;99.90
3281;DHT22;1652;51.31805600;6.20194400;2024-03-08T05:51:38;1.40;99.90
3281;DHT22;1652;51.31805600;6.20194400;2024-03-08T05:54:12;1.40;99.90
3281;DHT22;1652;51.31805600;6.20194400;2024-03-08T05:56:43;1.50;99.90
3281;DHT22;1652;51.31805600;6.20194400;2024-03-08T05:59:12;1.50;99.90
3281;DHT22;1652;51.31805600;6.20194400;2024-03-08T06:01:39;1.40;99.90
3281;DHT22;1652;51.31805600;6.20194400;2024-03-08T06:04:09;1.40;99.90
3281;DHT22;1652;51.31805600;6.20194400;2024-03-08T06:06:38;1.40;99.90
3281;DHT22;1652;51.31805600;6.20194400;2024-03-08T06:09:07;1.40;99.90
3281;DHT22;1652;51.31805600;6.20194400;2024-03-08T06:11:52;1.30;99.90
3281;DHT22;1652;51.31805600;6.20194400;2024-03-08T06:14:21;1.40;99.90
3281;DHT22;1652;51.31805600;6.20194400;2024-03-08T06:16:48;1.50;99.90
3281;DHT22;1652;51.31805600;6.20194400;2024-03-08T06:19:17;1.50;99.90
3281;DHT22;1652;51.31805600;6.20194400;2024-03-08T06:21:44;1.50;99.90
3281;DHT22;1652;51.31805600;6.20194400;2024-03-08T06:24:11;1.40;99.90
3281;DHT22;1652;51.31805600;6.20194400;2024-03-08T06:26:38;1.50;99.90
3281;DHT22;1652;51.31805600;6.20194400;2024-03-08T06:29:05;1.50;99.90
3281;DHT22;1652;51.31805600;6.20194400;2024-03-08T06:31:35;1.60;99.90
3281;DHT22;1652;51.31805600;6.20194400;2024-03-08T06:34:06;1.70;99.90
3281;DHT22;1652;51.31805600;6.20194400;2024-03-08T06:36:35;1.80;99.90
3281;DHT22;1652;51.31805600;6.20194400;2024-03-08T06:39:05;2.00;99.90
3281;DHT22;1652;51.31805600;6.20194400;2024-03-08T06:41:37;2.10;99.90
3281;DHT22;1652;51.31805600;6.20194400;2024-03-08T06:44:04;2.30;99.90
3281;DHT22;1652;51.31805600;6.20194400;2024-03-08T06:46:31;2.60;21.00
3281;DHT22;1652;51.31805600;6.20194400;2024-03-08T06:48:58;2.90;1.00
3281;DHT22;1652;51.31805600;6.20194400;2024-03-08T06:51:25;3.30;1.00
3281;DHT22;1652;51.31805600;6.20194400;2024-03-08T06:53:52;3.80;1.00
3281;DHT22;1652;51.31805600;6.20194400;2024-03-08T06:56:19;4.00;99.90
3281;DHT22;1652;51.31805600;6.20194400;2024-03-08T06:58:46;4.10;99.90
3281;DHT22;1652;51.31805600;6.20194400;2024-03-08T07:01:13;4.30;99.90
3281;DHT22;1652;51.31805600;6.20194400;2024-03-08T07:03:44;4.50;95.90
3281;DHT22;1652;51.31805600;6.20194400;2024-03-08T07:06:11;4.60;1.00
3281;DHT22;1652;51.31805600;6.20194400;2024-03-08T07:08:39;4.80;1.00
3281;DHT22;1652;51.31805600;6.20194400;2024-03-08T07:11:06;5.00;1.00
3281;DHT22;1652;51.31805600;6.20194400;2024-03-08T07:13:33;5.40;1.00
3281;DHT22;1652;51.31805600;6.20194400;2024-03-08T07:16:00;5.60;1.00
3281;DHT22;1652;51.31805600;6.20194400;2024-03-08T07:18:28;5.60;1.00
3281;DHT22;1652;51.31805600;6.20194400;2024-03-08T07:20:57;5.50;1.00
3281;DHT22;1652;51.31805600;6.20194400;2024-03-08T07:23:24;5.60;1.00
3281;DHT22;1652;51.31805600;6.20194400;2024-03-08T07:26:10;5.90;1.00
3281;DHT22;1652;51.31805600;6.20194400;2024-03-08T07:28:37;5.80;1.00
3281;DHT22;1652;51.31805600;6.20194400;2024-03-08T07:31:04;6.00;99.90
3281;DHT22;1652;51.31805600;6.20194400;2024-03-08T07:33:43;5.90;99.90
3281;DHT22;1652;51.31805600;6.20194400;2024-03-08T07:36:11;6.00;99.90
3281;DHT22;1652;51.31805600;6.20194400;2024-03-08T07:38:38;6.30;99.90
3281;DHT22;1652;51.31805600;6.20194400;2024-03-08T07:41:05;6.50;99.90
3281;DHT22;1652;51.31805600;6.20194400;2024-03-08T07:43:32;6.40;99.90
3281;DHT22;1652;51.31805600;6.20194400;2024-03-08T07:46:00;6.50;99.90
3281;DHT22;1652;51.31805600;6.20194400;2024-03-08T07:48:27;6.40;99.90
3281;DHT22;1652;51.31805600;6.20194400;2024-03-08T07:50:54;6.30;99.90
3281;DHT22;1652;51.31805600;6.20194400;2024-03-08T07:53:22;6.60;99.90
3281;DHT22;1652;51.31805600;6.20194400;2024-03-08T07:55:51;6.80;99.90
3281;DHT22;1652;51.31805600;6.20194400;2024-03-08T07:58:18;7.00;99.90
3281;DHT22;1652;51.31805600;6.20194400;2024-03-08T08:00:45;6.70;99.90
3281;DHT22;1652;51.31805600;6.20194400;2024-03-08T08:03:12;6.70;99.90
3281;DHT22;1652;51.31805600;6.20194400;2024-03-08T08:05:40;6.60;99.90
3281;DHT22;1652;51.31805600;6.20194400;2024-03-08T08:08:10;6.50;99.90
3281;DHT22;1652;51.31805600;6.20194400;2024-03-08T08:10:38;6.40;99.90
3281;DHT22;1652;51.31805600;6.20194400;2024-03-08T08:13:05;6.40;99.90
3281;DHT22;1652;51.31805600;6.20194400;2024-03-08T08:15:32;6.40;99.90
3281;DHT22;1652;51.31805600;6.20194400;2024-03-08T08:18:01;6.40;99.90
3281;DHT22;1652;51.31805600;6.20194400;2024-03-08T08:20:29;6.50;99.90
3281;DHT22;1652;51.31805600;6.20194400;2024-03-08T08:22:56;6.60;99.90
3281;DHT22;1652;51.31805600;6.20194400;2024-03-08T08:25:23;6.80;99.90
3281;DHT22;1652;51.31805600;6.20194400;2024-03-08T08:27:51;6.90;99.90
3281;DHT22;1652;51.31805600;6.20194400;2024-03-08T08:30:20;7.10;99.90
3281;DHT22;1652;51.31805600;6.20194400;2024-03-08T08:32:47;7.20;99.90
3281;DHT22;1652;51.31805600;6.20194400;2024-03-08T08:35:16;7.00;99.90
3281;DHT22;1652;51.31805600;6.20194400;2024-03-08T08:37:45;7.20;99.90
3281;DHT22;1652;51.31805600;6.20194400;2024-03-08T08:40:12;7.70;99.90
3281;DHT22;1652;51.31805600;6.20194400;2024-03-08T08:42:45;7.70;99.90
3281;DHT22;1652;51.31805600;6.20194400;2024-03-08T08:45:15;8.10;99.90
3281;DHT22;1652;51.31805600;6.20194400;2024-03-08T08:47:51;8.10;99.90
3281;DHT22;1652;51.31805600;6.20194400;2024-03-08T08:50:18;8.10;99.90
3281;DHT22;1652;51.31805600;6.20194400;2024-03-08T08:52:51;8.00;99.90
3281;DHT22;1652;51.31805600;6.20194400;2024-03-08T08:55:18;8.10;99.90
3281;DHT22;1652;51.31805600;6.20194400;2024-03-08T08:57:48;7.90;99.90
3281;DHT22;1652;51.31805600;6.20194400;2024-03-08T09:00:16;7.60;99.90
3281;DHT22;1652;51.31805600;6.20194400;2024-03-08T09:02:43;7.10;99.90
3281;DHT22;1652;51.31805600;6.20194400;2024-03-08T09:05:10;6.90;99.90
3281;DHT22;1652;51.31805600;6.20194400;2024-03-08T09:07:44;7.00;99.90
3281;DHT22;1652;51.31805600;6.20194400;2024-03-08T09:10:12;7.00;99.90
3281;DHT22;1652;51.31805600;6.20194400;2024-03-08T09:12:41;6.80;99.90
3281;DHT22;1652;51.31805600;6.20194400;2024-03-08T09:15:11;6.80;99.90
3281;DHT22;1652;51.31805600;6.20194400;2024-03-08T09:17:40;6.70;99.90
3281;DHT22;1652;51.31805600;6.20194400;2024-03-08T09:20:08;6.80;99.90
3281;DHT22;1652;51.31805600;6.20194400;2024-03-08T09:22:40;6.90;99.90
3281;DHT22;1652;51.31805600;6.20194400;2024-03-08T09:25:07;7.00;99.90
3281;DHT22;1652;51.31805600;6.20194400;2024-03-08T09:27:36;7.00;99.90
3281;DHT22;1652;51.31805600;6.20194400;2024-03-08T09:30:06;7.20;99.90
3281;DHT22;1652;51.31805600;6.20194400;2024-03-08T09:32:34;7.30;99.90
3281;DHT22;1652;51.31805600;6.20194400;2024-03-08T09:35:01;7.40;99.90
3281;DHT22;1652;51.31805600;6.20194400;2024-03-08T09:37:28;7.40;99.90
3281;DHT22;1652;51.31805600;6.20194400;2024-03-08T09:39:55;7.40;99.90
3281;DHT22;1652;51.31805600;6.20194400;2024-03-08T09:42:22;7.40;99.90
3281;DHT22;1652;51.31805600;6.20194400;2024-03-08T09:44:49;7.50;99.90
3281;DHT22;1652;51.31805600;6.20194400;2024-03-08T09:47:18;7.60;99.90
3281;DHT22;1652;51.31805600;6.20194400;2024-03-08T09:49:45;7.60;99.90
3281;DHT22;1652;51.31805600;6.20194400;2024-03-08T09:52:13;7.70;99.90
3281;DHT22;1652;51.31805600;6.20194400;2024-03-08T09:54:40;7.70;99.90
3281;DHT22;1652;51.31805600;6.20194400;2024-03-08T09:57:11;7.90;99.90
3281;DHT22;1652;51.31805600;6.20194400;2024-03-08T09:59:38;8.00;99.90
3281;DHT22;1652;51.31805600;6.20194400;2024-03-08T10:02:05;8.10;99.90
3281;DHT22;1652;51.31805600;6.20194400;2024-03-08T10:04:32;8.10;99.90
3281;DHT22;1652;51.31805600;6.20194400;2024-03-08T10:07:01;8.00;38.80
3281;DHT22;1652;51.31805600;6.20194400;2024-03-08T10:09:28;7.90;19.60
3281;DHT22;1652;51.31805600;6.20194400;2024-03-08T10:11:58;7.90;27.60
3281;DHT22;1652;51.31805600;6.20194400;2024-03-08T10:14:26;8.10;33.80
3281;DHT22;1652;51.31805600;6.20194400;2024-03-08T10:16:57;8.20;32.30
3281;DHT22;1652;51.31805600;6.20194400;2024-03-08T10:19:27;8.20;1.00
3281;DHT22;1652;51.31805600;6.20194400;2024-03-08T10:21:57;8.00;1.00
3281;DHT22;1652;51.31805600;6.20194400;2024-03-08T10:24:26;8.00;1.00
3281;DHT22;1652;51.31805600;6.20194400;2024-03-08T10:26:53;7.90;1.00
3281;DHT22;1652;51.31805600;6.20194400;2024-03-08T10:29:21;7.90;1.00
3281;DHT22;1652;51.31805600;6.20194400;2024-03-08T10:31:48;8.00;1.00
3281;DHT22;1652;51.31805600;6.20194400;2024-03-08T10:34:16;8.10;1.00
3281;DHT22;1652;51.31805600;6.20194400;2024-03-08T10:36:44;8.20;1.00
3281;DHT22;1652;51.31805600;6.20194400;2024-03-08T10:39:22;8.20;1.00
3281;DHT22;1652;51.31805600;6.20194400;2024-03-08T10:41:58;8.30;1.00
3281;DHT22;1652;51.31805600;6.20194400;2024-03-08T10:49:59;8.40;1.00
3281;DHT22;1652;51.31805600;6.20194400;2024-03-08T10:52:32;8.40;1.00
3281;DHT22;1652;51.31805600;6.20194400;2024-03-08T10:54:59;8.50;1.00
3281;DHT22;1652;51.31805600;6.20194400;2024-03-08T10:57:30;8.50;1.00
3281;DHT22;1652;51.31805600;6.20194400;2024-03-08T10:59:58;8.50;1.00
3281;DHT22;1652;51.31805600;6.20194400;2024-03-08T11:02:25;8.50;1.00
3281;DHT22;1652;51.31805600;6.20194400;2024-03-08T11:04:54;8.50;1.00
3281;DHT22;1652;51.31805600;6.20194400;2024-03-08T11:07:24;8.60;1.00
3281;DHT22;1652;51.31805600;6.20194400;2024-03-08T11:09:55;8.70;1.00
3281;DHT22;1652;51.31805600;6.20194400;2024-03-08T11:12:27;8.70;1.00
3281;DHT22;1652;51.31805600;6.20194400;2024-03-08T11:15:00;8.80;1.00
3281;DHT22;1652;51.31805600;6.20194400;2024-03-08T11:19:59;9.00;1.00
3281;DHT22;1652;51.31805600;6.20194400;2024-03-08T11:22:33;9.00;1.00
3281;DHT22;1652;51.31805600;6.20194400;2024-03-08T11:25:04;9.00;1.00
3281;DHT22;1652;51.31805600;6.20194400;2024-03-08T11:27:37;9.00;1.00
3281;DHT22;1652;51.31805600;6.20194400;2024-03-08T11:30:06;9.00;1.00
3281;DHT22;1652;51.31805600;6.20194400;2024-03-08T11:32:47;9.10;1.00
3281;DHT22;1652;51.31805600;6.20194400;2024-03-08T11:35:21;9.10;1.00
3281;DHT22;1652;51.31805600;6.20194400;2024-03-08T11:37:50;9.10;1.00
3281;DHT22;1652;51.31805600;6.20194400;2024-03-08T11:40:18;9.30;1.00
3281;DHT22;1652;51.31805600;6.20194400;2024-03-08T11:42:48;9.20;1.00
3281;DHT22;1652;51.31805600;6.20194400;2024-03-08T11:45:16;9.20;1.00
3281;DHT22;1652;51.31805600;6.20194400;2024-03-08T11:47:44;9.20;1.00
3281;DHT22;1652;51.31805600;6.20194400;2024-03-08T11:50:17;9.20;1.00
3281;DHT22;1652;51.31805600;6.20194400;2024-03-08T11:52:46;9.30;1.00
3281;DHT22;1652;51.31805600;6.20194400;2024-03-08T11:55:14;9.30;1.00
3281;DHT22;1652;51.31805600;6.20194400;2024-03-08T11:57:41;9.20;1.00
3281;DHT22;1652;51.31805600;6.20194400;2024-03-08T12:00:16;9.30;1.00
3281;DHT22;1652;51.31805600;6.20194400;2024-03-08T12:03:03;9.30;1.00
3281;DHT22;1652;51.31805600;6.20194400;2024-03-08T12:05:31;9.30;1.00
3281;DHT22;1652;51.31805600;6.20194400;2024-03-08T12:07:58;9.40;1.00
3281;DHT22;1652;51.31805600;6.20194400;2024-03-08T12:10:26;9.40;1.00
3281;DHT22;1652;51.31805600;6.20194400;2024-03-08T12:12:55;9.50;1.00
3281;DHT22;1652;51.31805600;6.20194400;2024-03-08T12:15:23;9.40;1.00
3281;DHT22;1652;51.31805600;6.20194400;2024-03-08T12:17:52;9.40;1.00
3281;DHT22;1652;51.31805600;6.20194400;2024-03-08T12:20:22;9.60;1.00
3281;DHT22;1652;51.31805600;6.20194400;2024-03-08T12:22:51;9.70;1.00
3281;DHT22;1652;51.31805600;6.20194400;2024-03-08T12:25:20;9.80;99.90
3281;DHT22;1652;51.31805600;6.20194400;2024-03-08T12:27:47;9.70;99.90
3281;DHT22;1652;51.31805600;6.20194400;2024-03-08T12:32:52;9.80;99.90
3281;DHT22;1652;51.31805600;6.20194400;2024-03-08T12:35:27;9.80;99.90
3281;DHT22;1652;51.31805600;6.20194400;2024-03-08T12:37:59;9.80;99.90
3281;DHT22;1652;51.31805600;6.20194400;2024-03-08T12:40:27;9.90;73.30
3281;DHT22;1652;51.31805600;6.20194400;2024-03-08T12:42:56;10.00;99.90
3281;DHT22;1652;51.31805600;6.20194400;2024-03-08T12:45:26;10.00;99.90
3281;DHT22;1652;51.31805600;6.20194400;2024-03-08T12:47:54;10.00;99.90
3281;DHT22;1652;51.31805600;6.20194400;2024-03-08T12:50:24;10.00;99.90
3281;DHT22;1652;51.31805600;6.20194400;2024-03-08T12:52:54;10.00;16.70
3281;DHT22;1652;51.31805600;6.20194400;2024-03-08T12:55:21;10.10;1.00
3281;DHT22;1652;51.31805600;6.20194400;2024-03-08T12:57:48;10.20;1.00
3281;DHT22;1652;51.31805600;6.20194400;2024-03-08T13:00:15;10.20;3.70
3281;DHT22;1652;51.31805600;6.20194400;2024-03-08T13:02:50;10.30;99.10
3281;DHT22;1652;51.31805600;6.20194400;2024-03-08T13:05:18;10.20;99.90
3281;DHT22;1652;51.31805600;6.20194400;2024-03-08T13:07:47;10.30;99.90
3281;DHT22;1652;51.31805600;6.20194400;2024-03-08T13:10:14;10.30;99.90
3281;DHT22;1652;51.31805600;6.20194400;2024-03-08T13:12:42;10.30;99.90
3281;DHT22;1652;51.31805600;6.20194400;2024-03-08T13:15:10;10.30;99.90
3281;DHT22;1652;51.31805600;6.20194400;2024-03-08T13:17:42;10.30;99.90
3281;DHT22;1652;51.31805600;6.20194400;2024-03-08T13:20:11;10.30;99.90
3281;DHT22;1652;51.31805600;6.20194400;2024-03-08T13:22:56;10.30;99.90
3281;DHT22;1652;51.31805600;6.20194400;2024-03-08T13:25:23;10.40;99.90
3281;DHT22;1652;51.31805600;6.20194400;2024-03-08T13:27:51;10.50;99.90
3281;DHT22;1652;51.31805600;6.20194400;2024-03-08T13:30:20;10.50;99.90
3281;DHT22;1652;51.31805600;6.20194400;2024-03-08T13:32:54;10.40;99.90
3281;DHT22;1652;51.31805600;6.20194400;2024-03-08T13:35:21;10.40;99.90
3281;DHT22;1652;51.31805600;6.20194400;2024-03-08T13:37:53;10.40;99.90
3281;DHT22;1652;51.31805600;6.20194400;2024-03-08T13:40:20;10.50;1.00
3281;DHT22;1652;51.31805600;6.20194400;2024-03-08T13:42:48;10.60;1.00
3281;DHT22;1652;51.31805600;6.20194400;2024-03-08T13:45:16;10.60;1.00
3281;DHT22;1652;51.31805600;6.20194400;2024-03-08T13:47:50;10.60;1.00
3281;DHT22;1652;51.31805600;6.20194400;2024-03-08T13:50:18;10.50;1.00
3281;DHT22;1652;51.31805600;6.20194400;2024-03-08T13:52:50;10.50;99.90
3281;DHT22;1652;51.31805600;6.20194400;2024-03-08T13:55:21;10.50;99.90
3281;DHT22;1652;51.31805600;6.20194400;2024-03-08T13:57:54;10.60;99.90
3281;DHT22;1652;51.31805600;6.20194400;2024-03-08T14:00:24;10.60;99.90
3281;DHT22;1652;51.31805600;6.20194400;2024-03-08T14:02:54;10.60;1.00
3281;DHT22;1652;51.31805600;6.20194400;2024-03-08T14:05:21;10.70;99.90
3281;DHT22;1652;51.31805600;6.20194400;2024-03-08T14:07:49;10.80;99.90
3281;DHT22;1652;51.31805600;6.20194400;2024-03-08T14:10:17;10.80;99.90
3281;DHT22;1652;51.31805600;6.20194400;2024-03-08T14:12:47;10.80;99.90
3281;DHT22;1652;51.31805600;6.20194400;2024-03-08T14:15:17;10.80;3.90
3281;DHT22;1652;51.31805600;6.20194400;2024-03-08T14:17:44;10.80;1.00
3281;DHT22;1652;51.31805600;6.20194400;2024-03-08T14:20:14;10.80;1.00